sensor_id;sensor_type;location;lat;lon;timestamp;temperature;humidity
29173;DHT22;16223;47.966;-1.616;2022-11-09T00:00:10;11.5;100
29173;DHT22;16223;47.966;-1.616;2022-11-09T00:01:02;10.8;100
29173;DHT22;16223;47.966;-1.616;2022-11-09T00:01:59;10.8;100
29173;DHT22;16223;47.966;-1.616;2022-11-09T00:02:59;10.8;100
29173;DHT22;16223;47.966;-1.616;2022-11-09T00:04:01;10.8;100
29173;DHT22;16223;47.966;-1.616;2022-11-09T00:04:59;10.8;100
29173;DHT22;16223;47.966;-1.616;2022-11-09T00:06:00;10.8;100
29173;DHT22;16223;47.966;-1.616;2022-11-09T00:06:59;10.8;100
29173;DHT22;16223;47.966;-1.616;2022-11-09T00:07:59;10.8;100
29173;DHT22;16223;47.966;-1.616;2022-11-09T00:09:00;10.8;100
29173;DHT22;16223;47.966;-1.616;2022-11-09T00:09:59;10.8;100
29173;DHT22;16223;47.966;-1.616;2022-11-09T00:11:04;10.8;100
29173;DHT22;16223;47.966;-1.616;2022-11-09T00:11:59;10.8;100
29173;DHT22;16223;47.966;-1.616;2022-11-09T00:12:59;10.8;100
29173;DHT22;16223;47.966;-1.616;2022-11-09T00:13:59;10.8;100
29173;DHT22;16223;47.966;-1.616;2022-11-09T00:14:59;10.8;100
29173;DHT22;16223;47.966;-1.616;2022-11-09T00:15:59;10.8;100
29173;DHT22;16223;47.966;-1.616;2022-11-09T00:16:59;10.8;100
29173;DHT22;16223;47.966;-1.616;2022-11-09T00:18:01;10.8;100
29173;DHT22;16223;47.966;-1.616;2022-11-09T00:18:59;10.8;100
29173;DHT22;16223;47.966;-1.616;2022-11-09T00:19:59;10.8;100
29173;DHT22;16223;47.966;-1.616;2022-11-09T00:21:03;10.8;100
29173;DHT22;16223;47.966;-1.616;2022-11-09T00:21:59;10.8;100
29173;DHT22;16223;47.966;-1.616;2022-11-09T00:22:59;10.3;100
29173;DHT22;16223;47.966;-1.616;2022-11-09T00:23:59;10.3;100
29173;DHT22;16223;47.966;-1.616;2022-11-09T00:24:59;10.3;100
29173;DHT22;16223;47.966;-1.616;2022-11-09T00:26:01;10.3;100
29173;DHT22;16223;47.966;-1.616;2022-11-09T00:26:59;10.3;100
29173;DHT22;16223;47.966;-1.616;2022-11-09T00:27:59;10.3;100
29173;DHT22;16223;47.966;-1.616;2022-11-09T00:28:59;10.3;100
29173;DHT22;16223;47.966;-1.616;2022-11-09T00:29:59;10.3;100
29173;DHT22;16223;47.966;-1.616;2022-11-09T00:31:00;10.3;100
29173;DHT22;16223;47.966;-1.616;2022-11-09T00:31:59;10.3;100
29173;DHT22;16223;47.966;-1.616;2022-11-09T00:33:01;10.3;100
29173;DHT22;16223;47.966;-1.616;2022-11-09T00:34:00;10.3;100
29173;DHT22;16223;47.966;-1.616;2022-11-09T00:34:59;10.3;100
29173;DHT22;16223;47.966;-1.616;2022-11-09T00:36:01;10.3;100
29173;DHT22;16223;47.966;-1.616;2022-11-09T00:37:00;10.3;100
29173;DHT22;16223;47.966;-1.616;2022-11-09T00:38:00;10.3;100
29173;DHT22;16223;47.966;-1.616;2022-11-09T00:38:59;10.3;100
29173;DHT22;16223;47.966;-1.616;2022-11-09T00:39:59;10.3;100
29173;DHT22;16223;47.966;-1.616;2022-11-09T00:41:02;10.3;100
29173;DHT22;16223;47.966;-1.616;2022-11-09T00:41:59;10.3;100
29173;DHT22;16223;47.966;-1.616;2022-11-09T00:42:59;10.3;100
29173;DHT22;16223;47.966;-1.616;2022-11-09T00:43:59;10.3;100
29173;DHT22;16223;47.966;-1.616;2022-11-09T00:44:59;10.3;100
29173;DHT22;16223;47.966;-1.616;2022-11-09T00:45:59;10.3;100
29173;DHT22;16223;47.966;-1.616;2022-11-09T00:46:59;10.3;100
29173;DHT22;16223;47.966;-1.616;2022-11-09T00:47:58;10.3;100
29173;DHT22;16223;47.966;-1.616;2022-11-09T00:48:59;10.3;100
29173;DHT22;16223;47.966;-1.616;2022-11-09T00:49:59;10.3;100
29173;DHT22;16223;47.966;-1.616;2022-11-09T00:50:59;10.3;100
29173;DHT22;16223;47.966;-1.616;2022-11-09T00:51:59;10.3;100
29173;DHT22;16223;47.966;-1.616;2022-11-09T00:52:59;10.3;100
29173;DHT22;16223;47.966;-1.616;2022-11-09T00:53:59;10.3;100
29173;DHT22;16223;47.966;-1.616;2022-11-09T00:54:59;10.3;100
29173;DHT22;16223;47.966;-1.616;2022-11-09T00:56:01;10.3;100
29173;DHT22;16223;47.966;-1.616;2022-11-09T00:57:00;10.3;100
29173;DHT22;16223;47.966;-1.616;2022-11-09T00:57:59;10.3;100
29173;DHT22;16223;47.966;-1.616;2022-11-09T00:58:59;10.3;100
29173;DHT22;16223;47.966;-1.616;2022-11-09T00:59:59;10.3;100
29173;DHT22;16223;47.966;-1.616;2022-11-09T01:01:04;10.3;100
29173;DHT22;16223;47.966;-1.616;2022-11-09T01:01:59;10.3;100
29173;DHT22;16223;47.966;-1.616;2022-11-09T01:02:59;10.3;100
29173;DHT22;16223;47.966;-1.616;2022-11-09T01:03:59;10.3;100
29173;DHT22;16223;47.966;-1.616;2022-11-09T01:04:59;10.3;100
29173;DHT22;16223;47.966;-1.616;2022-11-09T01:06:01;10.3;100
29173;DHT22;16223;47.966;-1.616;2022-11-09T01:06:59;10.3;100
29173;DHT22;16223;47.966;-1.616;2022-11-09T01:07:58;10.3;100
29173;DHT22;16223;47.966;-1.616;2022-11-09T01:08:59;10.3;100
29173;DHT22;16223;47.966;-1.616;2022-11-09T01:10:00;10.3;100
29173;DHT22;16223;47.966;-1.616;2022-11-09T01:11:03;10.3;100
29173;DHT22;16223;47.966;-1.616;2022-11-09T01:12:00;10.3;100
29173;DHT22;16223;47.966;-1.616;2022-11-09T01:12:59;10.3;100
29173;DHT22;16223;47.966;-1.616;2022-11-09T01:14:00;10.3;100
29173;DHT22;16223;47.966;-1.616;2022-11-09T01:14:59;10.3;100
29173;DHT22;16223;47.966;-1.616;2022-11-09T01:16:02;10.3;100
29173;DHT22;16223;47.966;-1.616;2022-11-09T01:16:59;10.3;100
29173;DHT22;16223;47.966;-1.616;2022-11-09T01:17:59;10.3;100
29173;DHT22;16223;47.966;-1.616;2022-11-09T01:18:59;10.3;100
29173;DHT22;16223;47.966;-1.616;2022-11-09T01:19:59;10.3;100
29173;DHT22;16223;47.966;-1.616;2022-11-09T01:21:00;10.3;100
29173;DHT22;16223;47.966;-1.616;2022-11-09T01:21:59;10.3;100
29173;DHT22;16223;47.966;-1.616;2022-11-09T01:22:59;10.3;100
29173;DHT22;16223;47.966;-1.616;2022-11-09T01:23:59;10.3;100
29173;DHT22;16223;47.966;-1.616;2022-11-09T01:24:59;10.3;100
29173;DHT22;16223;47.966;-1.616;2022-11-09T01:26:00;10.3;100
29173;DHT22;16223;47.966;-1.616;2022-11-09T01:26:59;10.3;100
29173;DHT22;16223;47.966;-1.616;2022-11-09T01:27:59;10.3;100
29173;DHT22;16223;47.966;-1.616;2022-11-09T01:28:59;10.3;100
29173;DHT22;16223;47.966;-1.616;2022-11-09T01:29:59;10.3;100
29173;DHT22;16223;47.966;-1.616;2022-11-09T01:31:02;10.0;100
29173;DHT22;16223;47.966;-1.616;2022-11-09T01:31:59;10.0;100
29173;DHT22;16223;47.966;-1.616;2022-11-09T01:33:01;10.0;100
29173;DHT22;16223;47.966;-1.616;2022-11-09T01:33:59;10.0;100
29173;DHT22;16223;47.966;-1.616;2022-11-09T01:34:59;10.0;100
29173;DHT22;16223;47.966;-1.616;2022-11-09T01:36:03;10.0;100
29173;DHT22;16223;47.966;-1.616;2022-11-09T01:36:59;10.0;100
29173;DHT22;16223;47.966;-1.616;2022-11-09T01:37:59;10.0;100
29173;DHT22;16223;47.966;-1.616;2022-11-09T01:38:59;10.0;100
29173;DHT22;16223;47.966;-1.616;2022-11-09T01:39:59;10.0;100
29173;DHT22;16223;47.966;-1.616;2022-11-09T01:40:59;10.0;100
29173;DHT22;16223;47.966;-1.616;2022-11-09T01:41:59;10.0;100
29173;DHT22;16223;47.966;-1.616;2022-11-09T01:43:04;10.0;100
29173;DHT22;16223;47.966;-1.616;2022-11-09T01:44:09;10.0;100
29173;DHT22;16223;47.966;-1.616;2022-11-09T01:45:32;10.0;100
29173;DHT22;16223;47.966;-1.616;2022-11-09T01:46:02;10.0;100
29173;DHT22;16223;47.966;-1.616;2022-11-09T01:47:00;10.0;100
29173;DHT22;16223;47.966;-1.616;2022-11-09T01:48:05;10.0;100
29173;DHT22;16223;47.966;-1.616;2022-11-09T01:49:02;9.8;100
29173;DHT22;16223;47.966;-1.616;2022-11-09T01:50:00;9.8;100
29173;DHT22;16223;47.966;-1.616;2022-11-09T01:51:02;9.8;100
29173;DHT22;16223;47.966;-1.616;2022-11-09T01:52:01;9.8;100
29173;DHT22;16223;47.966;-1.616;2022-11-09T01:53:01;9.8;100
29173;DHT22;16223;47.966;-1.616;2022-11-09T01:54:02;9.8;100
29173;DHT22;16223;47.966;-1.616;2022-11-09T01:55:02;9.8;100
29173;DHT22;16223;47.966;-1.616;2022-11-09T01:56:03;9.8;100
29173;DHT22;16223;47.966;-1.616;2022-11-09T01:57:02;9.8;100
29173;DHT22;16223;47.966;-1.616;2022-11-09T01:58:03;9.8;100
29173;DHT22;16223;47.966;-1.616;2022-11-09T01:59:02;9.8;100
29173;DHT22;16223;47.966;-1.616;2022-11-09T02:00:03;9.8;100
29173;DHT22;16223;47.966;-1.616;2022-11-09T02:01:00;9.8;100
29173;DHT22;16223;47.966;-1.616;2022-11-09T02:01:59;9.8;100
29173;DHT22;16223;47.966;-1.616;2022-11-09T02:03:01;9.8;100
29173;DHT22;16223;47.966;-1.616;2022-11-09T02:04:04;9.8;100
29173;DHT22;16223;47.966;-1.616;2022-11-09T02:05:04;9.8;100
29173;DHT22;16223;47.966;-1.616;2022-11-09T02:06:01;9.8;100
29173;DHT22;16223;47.966;-1.616;2022-11-09T02:07:00;9.8;100
29173;DHT22;16223;47.966;-1.616;2022-11-09T02:08:00;9.8;100
29173;DHT22;16223;47.966;-1.616;2022-11-09T02:09:07;9.8;100
29173;DHT22;16223;47.966;-1.616;2022-11-09T02:10:06;9.8;100
29173;DHT22;16223;47.966;-1.616;2022-11-09T02:11:05;9.8;100
29173;DHT22;16223;47.966;-1.616;2022-11-09T02:11:59;9.8;100
29173;DHT22;16223;47.966;-1.616;2022-11-09T02:13:00;9.8;100
29173;DHT22;16223;47.966;-1.616;2022-11-09T02:14:01;9.8;100
29173;DHT22;16223;47.966;-1.616;2022-11-09T02:15:01;9.8;100
29173;DHT22;16223;47.966;-1.616;2022-11-09T02:15:59;9.8;100
29173;DHT22;16223;47.966;-1.616;2022-11-09T02:16:59;9.8;100
29173;DHT22;16223;47.966;-1.616;2022-11-09T02:17:59;9.8;100
29173;DHT22;16223;47.966;-1.616;2022-11-09T02:19:00;9.8;100
29173;DHT22;16223;47.966;-1.616;2022-11-09T02:19:59;9.8;100
29173;DHT22;16223;47.966;-1.616;2022-11-09T02:21:00;9.8;100
29173;DHT22;16223;47.966;-1.616;2022-11-09T02:21:59;9.8;100
29173;DHT22;16223;47.966;-1.616;2022-11-09T02:22:59;9.8;100
29173;DHT22;16223;47.966;-1.616;2022-11-09T02:23:59;9.8;100
29173;DHT22;16223;47.966;-1.616;2022-11-09T02:24:59;9.8;100
29173;DHT22;16223;47.966;-1.616;2022-11-09T02:26:02;9.8;100
29173;DHT22;16223;47.966;-1.616;2022-11-09T02:26:59;9.8;100
29173;DHT22;16223;47.966;-1.616;2022-11-09T02:27:59;9.8;100
29173;DHT22;16223;47.966;-1.616;2022-11-09T02:29:02;9.8;100
29173;DHT22;16223;47.966;-1.616;2022-11-09T02:29:59;9.8;100
29173;DHT22;16223;47.966;-1.616;2022-11-09T02:30:59;9.8;100
29173;DHT22;16223;47.966;-1.616;2022-11-09T02:32:01;9.8;100
29173;DHT22;16223;47.966;-1.616;2022-11-09T02:32:59;9.8;100
29173;DHT22;16223;47.966;-1.616;2022-11-09T02:34:04;9.8;100
29173;DHT22;16223;47.966;-1.616;2022-11-09T02:34:58;9.8;100
29173;DHT22;16223;47.966;-1.616;2022-11-09T02:35:59;9.8;100
29173;DHT22;16223;47.966;-1.616;2022-11-09T02:36:59;9.8;100
29173;DHT22;16223;47.966;-1.616;2022-11-09T02:37:59;9.8;100
29173;DHT22;16223;47.966;-1.616;2022-11-09T02:39:00;9.8;100
29173;DHT22;16223;47.966;-1.616;2022-11-09T02:40:02;9.8;100
29173;DHT22;16223;47.966;-1.616;2022-11-09T02:40:59;9.8;100
29173;DHT22;16223;47.966;-1.616;2022-11-09T02:42:01;9.8;100
29173;DHT22;16223;47.966;-1.616;2022-11-09T02:42:59;9.8;100
29173;DHT22;16223;47.966;-1.616;2022-11-09T02:44:00;9.8;100
29173;DHT22;16223;47.966;-1.616;2022-11-09T02:44:59;9.8;100
29173;DHT22;16223;47.966;-1.616;2022-11-09T02:45:59;9.8;100
29173;DHT22;16223;47.966;-1.616;2022-11-09T02:46:59;9.8;100
29173;DHT22;16223;47.966;-1.616;2022-11-09T02:47:59;9.8;100
29173;DHT22;16223;47.966;-1.616;2022-11-09T02:48:59;9.8;100
29173;DHT22;16223;47.966;-1.616;2022-11-09T02:49:59;9.8;100
29173;DHT22;16223;47.966;-1.616;2022-11-09T02:50:59;9.8;100
29173;DHT22;16223;47.966;-1.616;2022-11-09T02:51:59;9.8;100
29173;DHT22;16223;47.966;-1.616;2022-11-09T02:52:59;9.8;100
29173;DHT22;16223;47.966;-1.616;2022-11-09T02:53:59;9.8;100
29173;DHT22;16223;47.966;-1.616;2022-11-09T02:54:59;9.8;100
29173;DHT22;16223;47.966;-1.616;2022-11-09T02:55:59;9.8;100
29173;DHT22;16223;47.966;-1.616;2022-11-09T02:56:59;9.8;100
29173;DHT22;16223;47.966;-1.616;2022-11-09T02:57:59;9.8;100
29173;DHT22;16223;47.966;-1.616;2022-11-09T02:58:59;9.8;100
29173;DHT22;16223;47.966;-1.616;2022-11-09T02:59:58;9.8;100
29173;DHT22;16223;47.966;-1.616;2022-11-09T03:00:59;9.8;100
29173;DHT22;16223;47.966;-1.616;2022-11-09T03:01:59;9.8;100
29173;DHT22;16223;47.966;-1.616;2022-11-09T03:02:59;9.8;100
29173;DHT22;16223;47.966;-1.616;2022-11-09T03:04:00;9.8;100
29173;DHT22;16223;47.966;-1.616;2022-11-09T03:04:59;9.8;100
29173;DHT22;16223;47.966;-1.616;2022-11-09T03:05:58;9.8;100
29173;DHT22;16223;47.966;-1.616;2022-11-09T03:06:59;9.8;100
29173;DHT22;16223;47.966;-1.616;2022-11-09T03:07:59;9.8;100
29173;DHT22;16223;47.966;-1.616;2022-11-09T03:09:00;9.8;100
29173;DHT22;16223;47.966;-1.616;2022-11-09T03:09:58;9.8;100
29173;DHT22;16223;47.966;-1.616;2022-11-09T03:11:01;9.8;100
29173;DHT22;16223;47.966;-1.616;2022-11-09T03:12:00;9.8;100
29173;DHT22;16223;47.966;-1.616;2022-11-09T03:12:59;9.8;100
29173;DHT22;16223;47.966;-1.616;2022-11-09T03:13:59;9.8;100
29173;DHT22;16223;47.966;-1.616;2022-11-09T03:15:00;9.8;100
29173;DHT22;16223;47.966;-1.616;2022-11-09T03:16:02;9.8;100
29173;DHT22;16223;47.966;-1.616;2022-11-09T03:16:59;9.8;100
29173;DHT22;16223;47.966;-1.616;2022-11-09T03:17:59;9.8;100
29173;DHT22;16223;47.966;-1.616;2022-11-09T03:18:59;9.8;100
29173;DHT22;16223;47.966;-1.616;2022-11-09T03:19:59;9.8;100
29173;DHT22;16223;47.966;-1.616;2022-11-09T03:21:03;9.8;100
29173;DHT22;16223;47.966;-1.616;2022-11-09T03:21:58;9.8;100
29173;DHT22;16223;47.966;-1.616;2022-11-09T03:22:59;9.8;100
29173;DHT22;16223;47.966;-1.616;2022-11-09T03:23:59;9.8;100
29173;DHT22;16223;47.966;-1.616;2022-11-09T03:24:59;9.8;100
29173;DHT22;16223;47.966;-1.616;2022-11-09T03:25:59;9.8;100
29173;DHT22;16223;47.966;-1.616;2022-11-09T03:27:02;9.4;100
29173;DHT22;16223;47.966;-1.616;2022-11-09T03:27:59;9.3;100
29173;DHT22;16223;47.966;-1.616;2022-11-09T03:28:59;9.3;100
29173;DHT22;16223;47.966;-1.616;2022-11-09T03:29:59;9.3;100
29173;DHT22;16223;47.966;-1.616;2022-11-09T03:30:59;9.3;100
29173;DHT22;16223;47.966;-1.616;2022-11-09T03:31:59;9.3;100
29173;DHT22;16223;47.966;-1.616;2022-11-09T03:33:00;9.3;100
29173;DHT22;16223;47.966;-1.616;2022-11-09T03:33:59;9.3;100
29173;DHT22;16223;47.966;-1.616;2022-11-09T03:34:59;9.3;100
29173;DHT22;16223;47.966;-1.616;2022-11-09T03:35:59;9.3;100
29173;DHT22;16223;47.966;-1.616;2022-11-09T03:36:59;9.3;100
29173;DHT22;16223;47.966;-1.616;2022-11-09T03:37:58;9.3;100
29173;DHT22;16223;47.966;-1.616;2022-11-09T03:38:59;9.3;100
29173;DHT22;16223;47.966;-1.616;2022-11-09T03:39:59;9.3;100
29173;DHT22;16223;47.966;-1.616;2022-11-09T03:41:00;9.3;100
29173;DHT22;16223;47.966;-1.616;2022-11-09T03:41:59;9.3;100
29173;DHT22;16223;47.966;-1.616;2022-11-09T03:42:59;9.3;100
29173;DHT22;16223;47.966;-1.616;2022-11-09T03:43:59;9.3;100
29173;DHT22;16223;47.966;-1.616;2022-11-09T03:44:59;9.3;100
29173;DHT22;16223;47.966;-1.616;2022-11-09T03:45:59;9.3;100
29173;DHT22;16223;47.966;-1.616;2022-11-09T03:46:58;9.3;100
29173;DHT22;16223;47.966;-1.616;2022-11-09T03:47:59;9.3;100
29173;DHT22;16223;47.966;-1.616;2022-11-09T03:48:59;9.3;100
29173;DHT22;16223;47.966;-1.616;2022-11-09T03:49:59;9.3;100
29173;DHT22;16223;47.966;-1.616;2022-11-09T03:50:59;9.3;100
29173;DHT22;16223;47.966;-1.616;2022-11-09T03:51:59;9.3;100
29173;DHT22;16223;47.966;-1.616;2022-11-09T03:53:00;9.3;100
29173;DHT22;16223;47.966;-1.616;2022-11-09T03:53:58;9.3;100
29173;DHT22;16223;47.966;-1.616;2022-11-09T03:54:58;9.3;100
29173;DHT22;16223;47.966;-1.616;2022-11-09T03:55:59;9.3;100
29173;DHT22;16223;47.966;-1.616;2022-11-09T03:56:59;9.3;100
29173;DHT22;16223;47.966;-1.616;2022-11-09T03:57:59;9.3;100
29173;DHT22;16223;47.966;-1.616;2022-11-09T03:58:59;9.3;100
29173;DHT22;16223;47.966;-1.616;2022-11-09T03:59:59;9.3;100
29173;DHT22;16223;47.966;-1.616;2022-11-09T04:00:58;9.3;100
29173;DHT22;16223;47.966;-1.616;2022-11-09T04:01:59;9.3;100
29173;DHT22;16223;47.966;-1.616;2022-11-09T04:02:59;9.3;100
29173;DHT22;16223;47.966;-1.616;2022-11-09T04:04:00;9.3;100
29173;DHT22;16223;47.966;-1.616;2022-11-09T04:04:59;9.3;100
29173;DHT22;16223;47.966;-1.616;2022-11-09T04:05:59;9.3;100
29173;DHT22;16223;47.966;-1.616;2022-11-09T04:06:58;9.3;100
29173;DHT22;16223;47.966;-1.616;2022-11-09T04:07:59;9.3;100
29173;DHT22;16223;47.966;-1.616;2022-11-09T04:08:58;9.3;100
29173;DHT22;16223;47.966;-1.616;2022-11-09T04:09:59;9.3;100
29173;DHT22;16223;47.966;-1.616;2022-11-09T04:10:59;9.3;100
29173;DHT22;16223;47.966;-1.616;2022-11-09T04:11:59;9.3;100
29173;DHT22;16223;47.966;-1.616;2022-11-09T04:12:59;9.3;100
29173;DHT22;16223;47.966;-1.616;2022-11-09T04:13:59;9.3;100
29173;DHT22;16223;47.966;-1.616;2022-11-09T04:14:59;9.3;100
29173;DHT22;16223;47.966;-1.616;2022-11-09T04:15:59;9.3;100
29173;DHT22;16223;47.966;-1.616;2022-11-09T04:16:59;9.3;100
29173;DHT22;16223;47.966;-1.616;2022-11-09T04:18:00;9.3;100
29173;DHT22;16223;47.966;-1.616;2022-11-09T04:18:59;9.3;100
29173;DHT22;16223;47.966;-1.616;2022-11-09T04:19:59;9.4;100
29173;DHT22;16223;47.966;-1.616;2022-11-09T04:21:00;9.4;100
29173;DHT22;16223;47.966;-1.616;2022-11-09T04:21:59;9.4;100
29173;DHT22;16223;47.966;-1.616;2022-11-09T04:23:01;9.4;100
29173;DHT22;16223;47.966;-1.616;2022-11-09T04:23:59;9.4;100
29173;DHT22;16223;47.966;-1.616;2022-11-09T04:24:59;9.4;100
29173;DHT22;16223;47.966;-1.616;2022-11-09T04:25:59;9.4;100
29173;DHT22;16223;47.966;-1.616;2022-11-09T04:26:59;9.4;100
29173;DHT22;16223;47.966;-1.616;2022-11-09T04:27:59;9.4;100
29173;DHT22;16223;47.966;-1.616;2022-11-09T04:28:59;9.4;100
29173;DHT22;16223;47.966;-1.616;2022-11-09T04:29:59;9.4;100
29173;DHT22;16223;47.966;-1.616;2022-11-09T04:31:01;9.4;100
29173;DHT22;16223;47.966;-1.616;2022-11-09T04:32:00;9.4;100
29173;DHT22;16223;47.966;-1.616;2022-11-09T04:33:00;9.4;100
29173;DHT22;16223;47.966;-1.616;2022-11-09T04:33:59;9.4;100
29173;DHT22;16223;47.966;-1.616;2022-11-09T04:34:59;9.4;100
29173;DHT22;16223;47.966;-1.616;2022-11-09T04:36:03;9.4;100
29173;DHT22;16223;47.966;-1.616;2022-11-09T04:36:59;9.4;100
29173;DHT22;16223;47.966;-1.616;2022-11-09T04:38:01;9.4;100
29173;DHT22;16223;47.966;-1.616;2022-11-09T04:38:59;9.4;100
29173;DHT22;16223;47.966;-1.616;2022-11-09T04:40:00;9.4;100
29173;DHT22;16223;47.966;-1.616;2022-11-09T04:41:01;9.4;100
29173;DHT22;16223;47.966;-1.616;2022-11-09T04:41:59;9.4;100
29173;DHT22;16223;47.966;-1.616;2022-11-09T04:43:00;9.4;100
29173;DHT22;16223;47.966;-1.616;2022-11-09T04:43:58;9.4;100
29173;DHT22;16223;47.966;-1.616;2022-11-09T04:44:59;9.4;100
29173;DHT22;16223;47.966;-1.616;2022-11-09T04:46:02;9.4;100
29173;DHT22;16223;47.966;-1.616;2022-11-09T04:46:59;9.4;100
29173;DHT22;16223;47.966;-1.616;2022-11-09T04:47:59;9.4;100
29173;DHT22;16223;47.966;-1.616;2022-11-09T04:48:59;9.4;100
29173;DHT22;16223;47.966;-1.616;2022-11-09T04:50:00;9.4;100
29173;DHT22;16223;47.966;-1.616;2022-11-09T04:51:01;9.4;100
29173;DHT22;16223;47.966;-1.616;2022-11-09T04:51:58;9.4;100
29173;DHT22;16223;47.966;-1.616;2022-11-09T04:53:05;9.4;100
29173;DHT22;16223;47.966;-1.616;2022-11-09T04:53:59;9.4;100
29173;DHT22;16223;47.966;-1.616;2022-11-09T04:54:59;9.4;100
29173;DHT22;16223;47.966;-1.616;2022-11-09T04:56:00;9.4;100
29173;DHT22;16223;47.966;-1.616;2022-11-09T04:56:59;9.4;100
29173;DHT22;16223;47.966;-1.616;2022-11-09T04:57:59;9.4;100
29173;DHT22;16223;47.966;-1.616;2022-11-09T04:58:59;9.4;100
29173;DHT22;16223;47.966;-1.616;2022-11-09T04:59:59;9.4;100
29173;DHT22;16223;47.966;-1.616;2022-11-09T05:01:04;9.4;100
29173;DHT22;16223;47.966;-1.616;2022-11-09T05:01:59;9.4;100
29173;DHT22;16223;47.966;-1.616;2022-11-09T05:03:01;9.4;100
29173;DHT22;16223;47.966;-1.616;2022-11-09T05:03:59;9.4;100
29173;DHT22;16223;47.966;-1.616;2022-11-09T05:04:59;9.4;100
29173;DHT22;16223;47.966;-1.616;2022-11-09T05:05:59;9.4;100
29173;DHT22;16223;47.966;-1.616;2022-11-09T05:06:59;9.4;100
29173;DHT22;16223;47.966;-1.616;2022-11-09T05:07:59;9.4;100
29173;DHT22;16223;47.966;-1.616;2022-11-09T05:09:00;9.4;100
29173;DHT22;16223;47.966;-1.616;2022-11-09T05:10:01;9.4;100
29173;DHT22;16223;47.966;-1.616;2022-11-09T05:10:59;9.4;100
29173;DHT22;16223;47.966;-1.616;2022-11-09T05:11:59;9.4;100
29173;DHT22;16223;47.966;-1.616;2022-11-09T05:12:59;9.4;100
29173;DHT22;16223;47.966;-1.616;2022-11-09T05:13:59;9.4;100
29173;DHT22;16223;47.966;-1.616;2022-11-09T05:14:59;9.4;100
29173;DHT22;16223;47.966;-1.616;2022-11-09T05:16:01;9.4;100
29173;DHT22;16223;47.966;-1.616;2022-11-09T05:16:59;9.4;100
29173;DHT22;16223;47.966;-1.616;2022-11-09T05:17:59;9.4;100
29173;DHT22;16223;47.966;-1.616;2022-11-09T05:19:00;9.4;100
29173;DHT22;16223;47.966;-1.616;2022-11-09T05:19:59;9.4;100
29173;DHT22;16223;47.966;-1.616;2022-11-09T05:21:00;9.4;100
29173;DHT22;16223;47.966;-1.616;2022-11-09T05:21:59;9.4;100
29173;DHT22;16223;47.966;-1.616;2022-11-09T05:22:59;9.4;100
29173;DHT22;16223;47.966;-1.616;2022-11-09T05:24:00;9.4;100
29173;DHT22;16223;47.966;-1.616;2022-11-09T05:24:59;9.4;100
29173;DHT22;16223;47.966;-1.616;2022-11-09T05:25:59;9.4;100
29173;DHT22;16223;47.966;-1.616;2022-11-09T05:26:58;9.4;100
29173;DHT22;16223;47.966;-1.616;2022-11-09T05:27:59;9.4;100
29173;DHT22;16223;47.966;-1.616;2022-11-09T05:29:00;9.4;100
29173;DHT22;16223;47.966;-1.616;2022-11-09T05:29:59;9.4;100
29173;DHT22;16223;47.966;-1.616;2022-11-09T05:31:00;9.4;100
29173;DHT22;16223;47.966;-1.616;2022-11-09T05:31:59;9.4;100
29173;DHT22;16223;47.966;-1.616;2022-11-09T05:32:59;9.4;100
29173;DHT22;16223;47.966;-1.616;2022-11-09T05:33:59;9.4;100
29173;DHT22;16223;47.966;-1.616;2022-11-09T05:34:59;9.4;100
29173;DHT22;16223;47.966;-1.616;2022-11-09T05:36:00;9.4;100
29173;DHT22;16223;47.966;-1.616;2022-11-09T05:37:00;9.4;100
29173;DHT22;16223;47.966;-1.616;2022-11-09T05:37:59;9.4;100
29173;DHT22;16223;47.966;-1.616;2022-11-09T05:38:59;9.4;100
29173;DHT22;16223;47.966;-1.616;2022-11-09T05:39:59;9.4;100
29173;DHT22;16223;47.966;-1.616;2022-11-09T05:40:59;9.4;100
29173;DHT22;16223;47.966;-1.616;2022-11-09T05:41:59;9.4;100
29173;DHT22;16223;47.966;-1.616;2022-11-09T05:42:59;9.4;100
29173;DHT22;16223;47.966;-1.616;2022-11-09T05:43:59;9.4;100
29173;DHT22;16223;47.966;-1.616;2022-11-09T05:44:59;9.4;100
29173;DHT22;16223;47.966;-1.616;2022-11-09T05:45:59;9.4;100
29173;DHT22;16223;47.966;-1.616;2022-11-09T05:46:59;9.4;100
29173;DHT22;16223;47.966;-1.616;2022-11-09T05:48:01;9.4;100
29173;DHT22;16223;47.966;-1.616;2022-11-09T05:48:59;9.4;100
29173;DHT22;16223;47.966;-1.616;2022-11-09T05:49:59;9.4;100
29173;DHT22;16223;47.966;-1.616;2022-11-09T05:51:01;9.4;100
29173;DHT22;16223;47.966;-1.616;2022-11-09T05:52:00;9.4;100
29173;DHT22;16223;47.966;-1.616;2022-11-09T05:53:00;9.4;100
29173;DHT22;16223;47.966;-1.616;2022-11-09T05:53:59;9.4;100
29173;DHT22;16223;47.966;-1.616;2022-11-09T05:54:59;9.4;100
29173;DHT22;16223;47.966;-1.616;2022-11-09T05:56:03;9.4;100
29173;DHT22;16223;47.966;-1.616;2022-11-09T05:56:58;9.4;100
29173;DHT22;16223;47.966;-1.616;2022-11-09T05:57:59;9.4;100
29173;DHT22;16223;47.966;-1.616;2022-11-09T05:58:59;9.4;100
29173;DHT22;16223;47.966;-1.616;2022-11-09T06:00:00;9.4;100
29173;DHT22;16223;47.966;-1.616;2022-11-09T06:00:59;9.4;100
29173;DHT22;16223;47.966;-1.616;2022-11-09T06:01:59;9.4;100
29173;DHT22;16223;47.966;-1.616;2022-11-09T06:03:03;9.4;100
29173;DHT22;16223;47.966;-1.616;2022-11-09T06:03:59;9.4;100
29173;DHT22;16223;47.966;-1.616;2022-11-09T06:04:59;9.4;100
29173;DHT22;16223;47.966;-1.616;2022-11-09T06:06:02;9.7;100
29173;DHT22;16223;47.966;-1.616;2022-11-09T06:06:59;9.7;100
29173;DHT22;16223;47.966;-1.616;2022-11-09T06:08:03;9.7;100
29173;DHT22;16223;47.966;-1.616;2022-11-09T06:08:59;9.7;100
29173;DHT22;16223;47.966;-1.616;2022-11-09T06:09:59;9.7;100
29173;DHT22;16223;47.966;-1.616;2022-11-09T06:11:00;9.7;100
29173;DHT22;16223;47.966;-1.616;2022-11-09T06:11:59;9.7;100
29173;DHT22;16223;47.966;-1.616;2022-11-09T06:12:59;9.7;100
29173;DHT22;16223;47.966;-1.616;2022-11-09T06:14:00;9.7;100
29173;DHT22;16223;47.966;-1.616;2022-11-09T06:14:59;9.8;100
29173;DHT22;16223;47.966;-1.616;2022-11-09T06:16:00;9.8;100
29173;DHT22;16223;47.966;-1.616;2022-11-09T06:16:59;9.8;100
29173;DHT22;16223;47.966;-1.616;2022-11-09T06:17:59;9.8;100
29173;DHT22;16223;47.966;-1.616;2022-11-09T06:18:59;9.8;100
29173;DHT22;16223;47.966;-1.616;2022-11-09T06:20:00;9.8;100
29173;DHT22;16223;47.966;-1.616;2022-11-09T06:21:01;9.8;100
29173;DHT22;16223;47.966;-1.616;2022-11-09T06:21:59;9.8;100
29173;DHT22;16223;47.966;-1.616;2022-11-09T06:23:00;9.8;100
29173;DHT22;16223;47.966;-1.616;2022-11-09T06:23:59;9.8;100
29173;DHT22;16223;47.966;-1.616;2022-11-09T06:25:00;9.8;100
29173;DHT22;16223;47.966;-1.616;2022-11-09T06:26:01;9.8;100
29173;DHT22;16223;47.966;-1.616;2022-11-09T06:26:59;9.8;100
29173;DHT22;16223;47.966;-1.616;2022-11-09T06:27:59;9.8;100
29173;DHT22;16223;47.966;-1.616;2022-11-09T06:28:59;9.8;100
29173;DHT22;16223;47.966;-1.616;2022-11-09T06:29:59;9.8;100
29173;DHT22;16223;47.966;-1.616;2022-11-09T06:31:00;9.8;100
29173;DHT22;16223;47.966;-1.616;2022-11-09T06:31:59;9.8;100
29173;DHT22;16223;47.966;-1.616;2022-11-09T06:33:00;9.8;100
29173;DHT22;16223;47.966;-1.616;2022-11-09T06:33:59;9.8;100
29173;DHT22;16223;47.966;-1.616;2022-11-09T06:34:59;9.8;100
29173;DHT22;16223;47.966;-1.616;2022-11-09T06:35:59;9.8;100